MPTO/PTY METAR and TAF weather

Enter ICAO airport designator
Station Type Date Time Source
MPTO METAR 2020/10/20 17:00 UTC NOAA

MPTO 201700Z 13010KT 9999 SCT018CB SCT080 28/23 Q1011 NOSIG


Station Type Date Time Source
MPTO Decoded METAR 2020/10/20 17:00 UTC NOAA

Tocumen, Panama (MPTO) 09-03N 079-22W
Oct 20, 2020 - 01:00 PM EDT / 2020.10.20 1700 UTC
Wind: from the SE (130 degrees) at 12 MPH (10 KT):0
Visibility: greater than 7 mile(s):0
Sky conditions: partly cloudy
Weather: Cumulonimbus clouds observed
Temperature: 82 F (28 C)
Dew Point: 73 F (23 C)
Relative Humidity: 74%
Pressure (altimeter): 29.85 in. Hg (1011 hPa)
ob: MPTO 201700Z 13010KT 9999 SCT018CB SCT080 28/23 Q1011 NOSIG
cycle: 17

Station Type Date Time Source
MPTO TAF 2020/10/20 18:33 UTC NOAA

TAF TAF COR MPTO 201715Z 2018/2124 14006KT 9999 SCT016 BKN090 PROB30 2019/2022 7000 TSRA SCT016CB BKN080
TEMPO 2022/2024 28004KT

Example: see airport list